createdAt,value
2023-02-24T00:04:56.221Z,6.45
2023-02-24T00:10:01.522Z,4.90
2023-02-24T00:15:05.781Z,5.85
2023-02-24T00:20:10.559Z,6.15
2023-02-24T00:25:15.908Z,7.38
2023-02-24T00:30:19.889Z,5.07
2023-02-24T00:35:23.498Z,4.95
2023-02-24T00:40:29.472Z,6.57
2023-02-24T00:45:36.068Z,6.03
2023-02-24T00:50:40.334Z,5.75
2023-02-24T00:55:45.723Z,5.68
2023-02-24T01:00:49.353Z,6.90
2023-02-24T01:05:53.359Z,4.93
2023-02-24T01:11:00.460Z,4.40
2023-02-24T01:16:04.191Z,5.72
2023-02-24T01:21:08.040Z,3.78
2023-02-24T01:26:13.507Z,6.47
2023-02-24T01:31:18.113Z,6.73
2023-02-24T01:36:25.338Z,7.43
2023-02-24T01:41:30.669Z,7.57
2023-02-24T01:46:35.761Z,5.10
2023-02-24T01:51:44.901Z,5.25
2023-02-24T01:56:51.912Z,5.10
2023-02-24T02:02:01.866Z,6.28
2023-02-24T02:07:06.492Z,9.48
2023-02-24T02:12:12.319Z,5.72
2023-02-24T02:17:21.429Z,6.18
2023-02-24T02:22:55.818Z,3.88
2023-02-24T02:28:26.656Z,7.10
2023-02-24T02:33:54.378Z,7.53
2023-02-24T02:39:06.993Z,11.43
2023-02-24T02:44:15.237Z,8.93
2023-02-24T02:49:25.678Z,10.38
2023-02-24T02:54:34.297Z,9.07
2023-02-24T02:59:43.686Z,9.20
2023-02-24T03:04:52.427Z,8.48
2023-02-24T03:10:00.892Z,10.75
2023-02-24T03:15:08.778Z,7.57
2023-02-24T03:20:20.795Z,7.93
2023-02-24T03:25:28.487Z,5.45
2023-02-24T03:30:40.264Z,5.28
2023-02-24T03:35:46.740Z,7.28
2023-02-24T03:45:53.670Z,6.85
2023-02-24T03:51:00.001Z,11.30
2023-02-24T03:56:16.798Z,8.23
2023-02-24T04:01:27.699Z,11.95
2023-02-24T04:06:43.463Z,7.40
2023-02-24T04:11:54.655Z,6.37
2023-02-24T04:17:03.438Z,13.23
2023-02-24T04:22:16.226Z,11.70
2023-02-24T04:27:20.796Z,6.03
2023-02-24T04:32:28.782Z,6.65
2023-02-24T04:37:34.381Z,7.68
2023-02-24T04:42:38.076Z,12.37
2023-02-24T04:47:41.692Z,18.13
2023-02-24T04:52:48.896Z,13.02
2023-02-24T04:57:54.422Z,12.07
2023-02-24T05:02:58.469Z,13.77
2023-02-24T05:08:05.924Z,12.15
2023-02-24T05:13:10.009Z,12.57
2023-02-24T05:18:15.431Z,10.48
2023-02-24T05:23:20.948Z,7.80
2023-02-24T05:28:24.776Z,7.82
2023-02-24T05:33:28.380Z,8.63
2023-02-24T05:38:33.947Z,3.22
2023-02-24T05:43:37.590Z,5.97
2023-02-24T05:48:41.201Z,11.25
2023-02-24T05:53:46.472Z,6.25
2023-02-24T05:58:50.413Z,9.02
2023-02-24T06:03:58.966Z,10.48
2023-02-24T06:09:05.016Z,11.55
2023-02-24T06:14:09.713Z,3.17
2023-02-24T06:19:13.877Z,4.47
2023-02-24T06:24:19.178Z,7.93
2023-02-24T06:29:22.789Z,2.45
2023-02-24T06:34:26.984Z,5.50
2023-02-24T06:39:34.391Z,4.78
2023-02-24T06:44:41.324Z,3.53
2023-02-24T06:49:45.057Z,1.70
2023-02-24T06:54:51.036Z,4.45
2023-02-24T06:59:54.622Z,5.22
2023-02-24T07:04:58.234Z,4.43
2023-02-24T07:10:03.533Z,2.45
2023-02-24T07:15:08.583Z,2.13
2023-02-24T07:20:13.499Z,1.40
2023-02-24T07:25:19.243Z,0.90
2023-02-24T07:30:22.893Z,2.13
2023-02-24T07:35:26.616Z,3.15
2023-02-24T07:40:33.028Z,2.38
2023-02-24T07:50:41.631Z,2.10
2023-02-24T07:55:46.923Z,4.13
2023-02-24T08:00:50.736Z,4.45
2023-02-24T08:05:57.295Z,4.47
2023-02-24T08:11:02.672Z,6.90
2023-02-24T08:16:07.613Z,4.95
2023-02-24T08:21:11.340Z,3.08
2023-02-24T08:26:16.653Z,7.35
2023-02-24T08:31:20.646Z,9.55
2023-02-24T08:36:24.629Z,5.95
2023-02-24T08:41:29.934Z,6.13
2023-02-24T08:46:33.622Z,7.80
2023-02-24T08:51:38.305Z,7.80
2023-02-24T08:56:44.371Z,4.85
2023-02-24T09:01:53.354Z,7.38
2023-02-24T09:07:11.768Z,8.23
2023-02-24T09:12:17.655Z,11.70
2023-02-24T09:17:21.283Z,4.10
2023-02-24T09:22:26.025Z,12.02
2023-02-24T09:27:31.302Z,9.52
2023-02-24T09:32:35.149Z,8.75
2023-02-24T09:37:38.897Z,11.02
2023-02-24T09:42:44.254Z,5.93
2023-02-24T09:47:49.449Z,9.98
2023-02-24T09:53:00.080Z,4.80
2023-02-24T09:58:18.228Z,3.72
2023-02-24T10:03:26.244Z,4.53
2023-02-24T10:08:36.398Z,5.25
2023-02-24T10:13:48.386Z,5.40
2023-02-24T10:18:54.921Z,5.70
2023-02-24T10:29:19.298Z,4.75
2023-02-24T10:34:24.078Z,2.53
2023-02-24T10:39:28.201Z,2.63
2023-02-24T10:44:33.517Z,3.63
2023-02-24T10:49:42.122Z,2.85
2023-02-24T10:54:46.605Z,3.38
2023-02-24T10:59:54.981Z,3.17
2023-02-24T11:05:02.540Z,2.08
2023-02-24T11:10:12.280Z,2.17
2023-02-24T11:15:22.801Z,2.20
2023-02-24T11:20:46.492Z,4.63
2023-02-24T11:25:55.016Z,5.35
2023-02-24T11:31:11.512Z,2.42
2023-02-24T11:36:23.336Z,6.47
2023-02-24T11:41:31.231Z,7.05
2023-02-24T11:46:43.440Z,5.18
2023-02-24T11:51:47.324Z,3.03
2023-02-24T11:56:55.379Z,2.95
2023-02-24T12:02:06.935Z,4.00
2023-02-24T12:07:19.820Z,2.88
2023-02-24T12:12:27.394Z,2.45
2023-02-24T12:17:37.544Z,2.33
2023-02-24T12:22:47.773Z,1.60
2023-02-24T12:28:03.345Z,1.40
2023-02-24T12:33:31.135Z,2.67
2023-02-24T12:38:45.792Z,2.25
2023-02-24T12:43:56.147Z,1.73
2023-02-24T12:49:33.476Z,0.82
2023-02-24T12:54:44.749Z,0.55
2023-02-24T12:59:49.697Z,0.70
2023-02-24T13:05:05.189Z,1.15
2023-02-24T13:10:19.642Z,1.10
2023-02-24T13:15:24.995Z,1.48
2023-02-24T13:20:33.276Z,2.50
2023-02-24T13:25:38.275Z,0.80
2023-02-24T13:30:44.932Z,0.38
2023-02-24T13:35:51.067Z,1.17
2023-02-24T13:40:55.064Z,0.32
2023-02-24T13:46:01.252Z,0.82
2023-02-24T13:51:30.914Z,1.05
2023-02-24T13:56:43.705Z,1.98
2023-02-24T14:01:50.495Z,1.48
2023-02-24T14:06:59.204Z,1.33
2023-02-24T14:12:06.301Z,1.60
2023-02-24T14:17:21.672Z,1.98
2023-02-24T14:22:26.970Z,2.05
2023-02-24T14:27:31.012Z,2.83
2023-02-24T14:32:35.669Z,1.45
2023-02-24T14:37:41.038Z,1.25
2023-02-24T14:42:49.192Z,2.17
2023-02-24T14:47:52.931Z,1.65
2023-02-24T14:53:02.932Z,3.33
2023-02-24T14:58:13.133Z,1.05
2023-02-24T15:03:19.832Z,0.70
2023-02-24T15:08:34.729Z,1.35
2023-02-24T15:13:41.749Z,1.35
2023-02-24T15:18:50.181Z,0.50
2023-02-24T15:24:02.965Z,1.00
2023-02-24T15:29:15.557Z,0.50
2023-02-24T15:34:21.561Z,0.52
2023-02-24T15:39:29.801Z,0.40
2023-02-24T15:44:35.827Z,0.25
2023-02-24T15:49:39.430Z,0.50
2023-02-24T15:54:44.747Z,3.22
2023-02-24T15:59:48.849Z,0.30
2023-02-24T16:04:53.008Z,0.75
2023-02-24T16:09:59.901Z,0.98
2023-02-24T16:15:06.548Z,0.40
2023-02-24T16:20:14.723Z,0.40
2023-02-24T16:25:20.964Z,0.35
2023-02-24T16:30:26.801Z,0.10
2023-02-24T16:35:30.521Z,0.85
2023-02-24T16:40:36.985Z,0.60
2023-02-24T16:50:45.401Z,1.25
2023-02-24T16:55:51.416Z,0.30
2023-02-24T17:00:57.756Z,0.35
2023-02-24T17:06:01.415Z,0.45
2023-02-24T17:11:06.988Z,0.65
2023-02-24T17:16:10.881Z,1.13
2023-02-24T17:21:16.058Z,0.65
2023-02-24T17:26:21.628Z,1.30
2023-02-24T17:31:25.535Z,2.40
2023-02-24T17:36:30.076Z,1.20
2023-02-24T17:41:35.416Z,1.88
2023-02-24T17:46:39.939Z,1.20
2023-02-24T17:51:43.733Z,2.05
2023-02-24T17:56:49.015Z,1.63
2023-02-24T18:01:52.772Z,1.70
2023-02-24T18:06:56.516Z,1.00
2023-02-24T18:12:02.073Z,1.42
2023-02-24T18:17:05.685Z,2.57
2023-02-24T18:22:09.789Z,0.65
2023-02-24T18:27:15.146Z,2.28
2023-02-24T18:32:19.219Z,0.30
2023-02-24T18:37:23.184Z,1.25
2023-02-24T18:42:28.480Z,0.47
2023-02-24T18:47:32.160Z,2.25
2023-02-24T18:52:36.000Z,0.65
2023-02-24T18:57:42.282Z,0.68
2023-02-24T19:02:46.251Z,2.20
2023-02-24T19:07:49.986Z,3.70
2023-02-24T19:12:55.342Z,1.38
2023-02-24T19:17:59.068Z,2.53
2023-02-24T19:23:02.834Z,3.15
2023-02-24T19:28:08.164Z,2.65
2023-02-24T19:33:11.962Z,4.05
2023-02-24T19:38:16.575Z,1.17
2023-02-24T19:43:21.940Z,1.98
2023-02-24T19:48:25.632Z,1.67
2023-02-24T19:53:29.834Z,1.10
2023-02-24T19:58:35.457Z,0.75
2023-02-24T20:03:40.052Z,3.20
2023-02-24T20:08:43.772Z,2.00
2023-02-24T20:13:51.672Z,2.70
2023-02-24T20:18:56.098Z,1.02
2023-02-24T20:24:00.775Z,1.45
2023-02-24T20:29:06.142Z,1.17
2023-02-24T20:34:10.410Z,0.63
2023-02-24T20:39:14.194Z,0.30
2023-02-24T20:44:19.503Z,0.63
2023-02-24T20:49:23.327Z,1.98
2023-02-24T20:54:27.036Z,1.30
2023-02-24T20:59:32.293Z,1.77
2023-02-24T21:04:36.028Z,0.47
2023-02-24T21:09:39.759Z,1.45
2023-02-24T21:14:45.365Z,2.50
2023-02-24T21:19:49.046Z,0.87
2023-02-24T21:24:52.657Z,0.65
2023-02-24T21:29:57.942Z,1.60
2023-02-24T21:35:01.720Z,1.03
2023-02-24T21:40:06.482Z,0.55
2023-02-24T21:45:12.475Z,2.33
2023-02-24T21:50:16.430Z,1.25
2023-02-24T21:55:20.210Z,0.22
2023-02-24T22:00:25.697Z,0.80
2023-02-24T22:05:29.328Z,0.50
2023-02-24T22:10:32.949Z,0.45
2023-02-24T22:15:39.694Z,1.05
2023-02-24T22:20:43.385Z,0.35
2023-02-24T22:25:47.065Z,0.60
2023-02-24T22:30:58.032Z,0.50
2023-02-24T22:36:04.083Z,0.40
2023-02-24T22:41:12.027Z,0.77
2023-02-24T22:46:19.854Z,0.85
2023-02-24T22:51:24.348Z,1.30
2023-02-24T22:56:29.292Z,1.95
2023-02-24T23:01:37.045Z,0.13
2023-02-24T23:06:40.733Z,1.02
2023-02-24T23:11:44.555Z,0.75
2023-02-24T23:16:53.646Z,0.45
2023-02-24T23:21:57.358Z,1.40
2023-02-24T23:27:01.645Z,1.02
2023-02-24T23:32:07.113Z,2.95
2023-02-24T23:37:10.902Z,0.30
2023-02-24T23:42:14.499Z,1.98
2023-02-24T23:47:19.781Z,1.17
2023-02-24T23:52:23.485Z,0.73
2023-02-24T23:57:29.205Z,1.33
